Latest Coastal Weather Observations for Gabo Island

IDV60701

Issued at 8:51 pm EST Saturday 25 April 2015 (issued every 10 minutes, with the page automatically refreshed every 10 minutes)

About coastal observations | Map of coastal stations | Coastal observations for VIC | Marine services | Other Formats
Station Details ID: 084016 Name: GABO ISLAND LIGHTHOUSE Lat: -37.57 Lon: 149.92 Height: 15.2 m
Data from the previous 72 hours. | See also: Recent months at Gabo Island
Date/Time
EST
Temp

°C
Wind Pressure Rain
since 9am
mm
Weather Cloud Vis
km
Sea
Height
m
Swell
Dir
 
Speed
knots
Gust
knots
hPa Trend Height
m
Period
s
Dir
25/08:30pm 14.5 W 11 14 1008.7 - 0.0 - - - - - - -
25/08:00pm 14.4 W 12 14 1008.6 - 0.0 - - - - - - -
25/07:30pm 14.3 WNW 10 13 1008.7 - 0.0 - - - - - - -
25/07:00pm 14.7 W 12 16 1008.7 - 0.0 - - - - - - -
25/06:30pm 16.0 SW 13 16 1008.3 - 0.0 - - - - - - -
25/06:00pm 15.8 WSW 13 15 1007.9 - 0.0 - - - - - - -
25/05:30pm 16.0 WSW 14 18 1007.5 - 0.0 - - - - - - -
25/05:00pm 15.9 WSW 21 25 1007.3 - 0.0 - - - - - - -
25/04:30pm 16.9 SW 23 27 1007.0 - 0.0 - - - - - - -
25/04:00pm 17.5 SSW 15 17 1007.0 - 0.0 - - - - - - -
25/03:30pm 17.5 SSW 14 17 1007.0 - 0.0 - - - - - - -
25/03:00pm 17.7 SSW 14 17 1006.9 - 0.0 Fine Mostly cloudy 40 1 0.8 9 E
25/02:30pm 17.8 SSW 13 15 1006.8 - 0.0 - - - - - - -
25/02:00pm 18.0 SSW 11 13 1006.6 - 0.0 - - - - - - -
25/01:30pm 18.2 SSW 11 14 1006.6 - 0.0 - - - - - - -
25/01:00pm 18.2 SSW 10 11 1006.9 - 0.0 - - - - - - -
25/12:30pm 18.5 SW 9 11 1007.4 - 0.0 - - - - - - -
25/12:00pm 19.1 WSW 7 9 1007.6 - 0.0 - - - - - - -
25/11:30am 19.2 WSW 8 9 1007.8 - 0.0 - - - - - - -
25/11:00am 18.8 W 9 10 1007.9 - 0.0 - - - - - - -
25/10:30am 18.7 W 8 11 1007.8 - 0.0 - - - - - - -
25/10:00am 18.0 WNW 9 11 1007.8 - 0.0 - - - - - - -
25/09:30am 17.1 W 9 11 1007.7 - 0.0 - - - - - - -
25/09:00am 16.8 WNW 8 10 1007.4 - 0.0 Fine Mostly clear 40 <0.5 0.8 9 E
25/08:30am 16.2 WNW 8 10 1007.3 - 0.0 - - - - - - -
25/08:00am 15.5 WNW 7 9 1007.1 - 0.0 - - - - - - -
25/07:30am 14.9 WNW 8 9 1006.8 - 0.0 - - - - - - -
25/07:00am 14.3 W 7 9 1006.6 - 0.0 - - - - - - -
25/06:30am 14.3 WNW 9 12 1006.5 - 0.0 - - - - - - -
25/06:00am 14.0 WNW 9 11 1006.2 - 0.0 - - - - - - -
25/05:30am 13.9 WNW 8 9 1006.0 - 0.0 - - - - - - -
25/05:00am 14.1 WNW 10 12 1005.9 - 0.0 - - - - - - -
25/04:30am 14.1 WNW 6 8 1005.9 - 0.0 - - - - - - -
25/04:00am 14.6 WNW 7 8 1005.7 - 0.0 - - - - - - -
25/03:30am 15.2 W 10 12 1005.4 - 0.0 - - - - - - -
25/03:00am 15.0 W 8 9 1005.5 - 0.0 Lightning Mostly clear 30 <0.5 0.8 10 E
25/02:30am 15.2 W 7 9 1005.6 - 0.0 - - - - - - -
25/02:00am 15.1 W 6 9 1005.4 - 0.0 - - - - - - -
25/01:30am 14.8 WNW 6 8 1005.2 - 0.0 - - - - - - -
25/01:00am 14.2 NW 5 7 1005.2 - 0.0 - - - - - - -
25/12:30am 14.6 WNW 3 4 1005.2 - 0.0 - - - - - - -
25/12:00am 15.3 WSW 5 6 1005.0 - 0.0 - - - - - - -
 
Date/Time
EST
Temp

°C
Wind Pressure Rain
since 9am
mm
Weather Cloud Vis
km
Sea
Height
m
Swell
Dir
 
Speed
knots
Gust
knots
hPa Trend Height
m
Period
s
Dir
24/11:30pm 15.1 W 6 7 1005.0 - 0.0 - - - - - - -
24/11:00pm 15.0 W 6 7 1004.8 - 0.0 - - - - - - -
24/10:30pm 15.2 W 7 8 1004.6 - 0.0 - - - - - - -
24/10:00pm 15.3 W 6 8 1004.8 - 0.0 - - - - - - -
24/09:30pm 15.3 WNW 4 5 1004.7 - 0.0 - - - - - - -
24/09:00pm 15.8 NNE 4 5 1004.5 - 0.0 Fine Mostly clear 30 <0.5 1.0 10 E
24/08:30pm 16.2 N 5 6 1004.5 - 0.0 - - - - - - -
24/08:00pm 16.2 N 6 7 1004.2 - 0.0 - - - - - - -
24/07:30pm 16.0 N 6 6 1004.0 - 0.0 - - - - - - -
24/07:00pm 16.5 N 6 7 1004.1 - 0.0 - - - - - - -
24/06:30pm 16.4 WSW 3 5 1003.9 - 0.0 - - - - - - -
24/06:00pm 16.9 WNW 3 4 1003.7 - 0.0 - - - - - - -
24/05:30pm 17.1 W 5 5 1003.5 - 0.0 - - - - - - -
24/05:00pm 17.4 WSW 7 7 1003.2 - 0.0 - - - - - - -
24/04:30pm 17.6 WSW 8 11 1003.1 - 0.0 - - - - - - -
24/04:00pm 17.8 WSW 9 11 1002.9 - 0.0 - - - - - - -
24/03:30pm 17.9 WSW 9 11 1002.7 - 0.0 - - - - - - -
24/03:00pm 18.0 W 8 10 1002.7 - 0.0 Distant precip. Mostly cloudy 40 <0.5 1.0 9 E
24/02:30pm 18.1 W 9 11 1002.9 - 0.0 - - - - - - -
24/02:00pm 18.2 WSW 9 12 1003.3 - 0.0 - - - - - - -
24/01:30pm 17.9 SW 12 13 1003.2 - 0.0 - - - - - - -
24/01:00pm 18.0 SW 12 14 1003.4 - 0.0 - - - - - - -
24/12:30pm 18.6 SW 5 6 1003.5 - 0.0 - - - - - - -
24/12:00pm 18.1 SW 5 6 1003.6 - 0.0 - - - - - - -
24/11:30am 18.4 SW 5 6 1003.7 - 0.0 - - - - - - -
24/11:00am 18.4 W 6 9 1003.9 - 0.0 - - - - - - -
24/10:30am 18.9 NNE 11 14 1003.7 - 0.0 - - - - - - -
24/10:00am 18.2 NNE 5 7 1004.1 - 0.0 - - - - - - -
24/09:30am 17.8 N 4 6 1004.4 - 0.0 - - - - - - -
24/09:00am 17.4 NNE 4 5 1004.6 - 0.2 Fine Mostly cloudy 25 <0.5 1.0 10 SE
24/08:30am 17.1 NNE 6 7 1004.9 - 0.2 - - - - - - -
24/08:00am 16.4 NNE 6 8 1005.2 - 0.2 - - - - - - -
24/07:30am 16.2 NNE 5 6 1005.2 - 0.2 - - - - - - -
24/07:00am 14.7 CALM 0 0 1005.1 - 0.2 - - - - - - -
24/06:30am 14.5 WNW 3 4 1005.2 - 0.2 - - - - - - -
24/06:00am 14.5 NE 4 5 1005.4 - 0.2 - - - - - - -
24/05:30am 14.2 N 4 4 1005.5 - 0.2 - - - - - - -
24/05:00am 15.0 WNW 5 6 1005.9 - 0.2 - - - - - - -
24/04:30am 15.1 WNW 5 6 1006.0 - 0.2 - - - - - - -
24/04:00am 15.5 NNW 5 7 1006.2 - 0.0 - - - - - - -
24/03:30am 15.3 WNW 8 11 1006.4 - 0.0 - - - - - - -
24/03:00am 15.8 WNW 7 8 1006.7 - 0.0 Fine Mostly clear 30 1 1.5 10 SE
24/02:30am 16.0 NW 9 11 1007.0 - 0.0 - - - - - - -
24/02:00am 16.1 WNW 9 11 1007.3 - 0.0 - - - - - - -
24/01:30am 16.0 WNW 9 12 1007.8 - 0.0 - - - - - - -
24/01:00am 16.1 WNW 7 9 1008.0 - 0.0 - - - - - - -
24/12:30am 16.4 WNW 8 9 1008.5 - 0.0 - - - - - - -
24/12:00am 16.9 WNW 7 8 1008.7 - 0.0 - - - - - - -
 
Date/Time
EST
Temp

°C
Wind Pressure Rain
since 9am
mm
Weather Cloud Vis
km
Sea
Height
m
Swell
Dir
 
Speed
knots
Gust
knots
hPa Trend Height
m
Period
s
Dir
23/11:30pm 17.0 WNW 7 9 1009.0 - 0.0 - - - - - - -
23/11:00pm 17.3 WNW 7 9 1009.6 - 0.0 - - - - - - -
23/10:30pm 17.3 W 7 8 1010.0 - 0.0 - - - - - - -
23/10:00pm 17.5 W 7 9 1010.4 - 0.0 - - - - - - -
23/09:30pm 17.8 NW 5 7 1010.7 - 0.0 - - - - - - -
23/09:00pm 18.1 NW 2 7 1010.9 - 0.0 Fine Cloudy 20 1 2.0 10 SE
23/08:30pm 18.4 SSE 8 11 1011.0 - 0.0 - - - - - - -
23/08:00pm 18.5 S 9 11 1011.0 - 0.0 - - - - - - -
23/07:30pm 18.4 SSE 8 10 1010.9 - 0.0 - - - - - - -
23/07:00pm 18.4 SSE 5 7 1011.2 - 0.0 - - - - - - -
23/06:30pm 18.6 SE 6 9 1011.2 - 0.0 - - - - - - -
23/06:00pm 18.8 SE 8 9 1011.1 - 0.0 - - - - - - -
23/05:30pm 19.0 SSE 10 13 1010.8 - 0.0 - - - - - - -
23/05:00pm 19.5 SSE 8 11 1010.8 - 0.0 - - - - - - -
23/04:30pm 19.9 SE 7 10 1011.0 - 0.0 - - - - - - -
23/04:00pm 20.5 SSE 8 11 1011.2 - 0.0 - - - - - - -
23/03:30pm 20.7 SSE 9 13 1011.2 - 0.0 - - - - - - -
23/03:00pm 21.1 SSE 6 9 1011.5 - 0.0 Fine Mostly clear 20 1 2.0 10 SE
23/02:30pm 21.2 SSE 6 7 1011.6 - 0.0 - - - - - - -
23/02:00pm 20.9 SE 5 6 1011.6 - 0.0 - - - - - - -
23/01:30pm 20.5 S 7 8 1011.7 - 0.0 - - - - - - -
23/01:00pm 20.3 S 8 10 1011.9 - 0.0 - - - - - - -
23/12:30pm 20.8 S 8 10 1012.4 - 0.0 - - - - - - -
23/12:00pm 20.4 SSE 9 11 1013.0 - 0.0 - - - - - - -
23/11:30am 20.3 SSE 10 13 1013.6 - 0.0 - - - - - - -
23/11:00am 20.0 SSE 11 14 1014.0 - 0.0 - - - - - - -
23/10:30am 19.0 S 14 17 1014.2 - 0.0 - - - - - - -
23/10:00am 18.7 S 14 17 1014.4 - 0.0 - - - - - - -
23/09:30am 18.4 SSE 18 21 1014.5 - 0.0 - - - - - - -
23/09:00am 18.3 SSE 17 21 1014.8 - 58.0 Showers Cloudy 8 1 2.5 9 SE
23/08:30am 18.2 SSE 18 22 1014.8 - 58.0 - - - - - - -
23/08:00am 18.2 SSE 19 24 1014.9 - 58.0 - - - - - - -
23/07:30am 18.0 SSE 20 26 1014.8 - 58.0 - - - - - - -
23/07:00am 17.9 SSE 21 26 1014.6 - 58.0 - - - - - - -
23/06:30am 17.8 SSE 23 31 1014.5 - 57.8 - - - - - - -
23/06:00am 17.9 SSE 22 30 1014.4 - 57.4 - - - - - - -
23/05:30am 18.0 SSE 22 26 1014.3 - 56.8 - - - - - - -
23/05:00am 17.8 S 21 26 1014.3 - 56.6 - - - - - - -
23/04:30am 17.8 SSE 22 27 1014.4 - 55.8 - - - - - - -
23/04:00am 18.1 SSE 21 25 1014.3 - 55.8 - - - - - - -
23/03:30am 18.1 SSE 22 27 1014.3 - 55.4 - - - - - - -
23/03:00am 18.1 SSE 20 26 1014.5 - 54.8 Rain Cloudy 2 2 4.0 9 SE
23/02:30am 17.9 SSE 14 23 1014.7 - 54.6 - - - - - - -
23/02:00am 17.1 SE 9 12 1015.2 - 53.0 - - - - - - -
23/01:30am 17.3 SE 14 19 1015.1 - 48.4 - - - - - - -
23/01:00am 17.8 SE 8 12 1015.2 - 46.0 - - - - - - -
23/12:30am 17.7 ESE 11 15 1015.6 - 43.8 - - - - - - -
23/12:03am 17.7 SSE 19 29 1015.7 - 41.4 - - - - - - -
23/12:00am 17.8 SSE 23 29 1015.6 - 41.2 - - - - - - -
 
Date/Time
EST
Temp

°C
Wind Pressure Rain
since 9am
mm
Weather Cloud Vis
km
Sea
Height
m
Swell
Dir
 
Speed
knots
Gust
knots
hPa Trend Height
m
Period
s
Dir
22/11:30pm 18.0 SSE 22 27 1015.9 - 37.2 - - - - - - -
22/11:00pm 18.2 SSE 17 23 1016.2 - 36.4 - - - - - - -
22/10:30pm 18.3 SSE 20 25 1016.3 - 33.6 - - - - - - -
22/10:00pm 18.2 SSE 21 27 1016.5 - 33.0 - - - - - - -
22/09:30pm 18.1 SSE 21 25 1016.6 - 32.8 - - - - - - -
22/09:00pm 17.9 SSE 24 31 1016.4 - 31.6 Rain Cloudy 2 2 4.0 9 SE

Other Formats:

Comma delimited format used in spreadsheet applications
http://www.bom.gov.au/fwo/IDV60701/IDV60701.94933.axf

JavaScript Object Notation format (JSON) in row-major order
http://www.bom.gov.au/fwo/IDV60701/IDV60701.94933.json